createdAt,value
2022-08-03T00:08:19.599Z,19.06
2022-08-03T00:18:22.807Z,18.92
2022-08-03T00:28:27.672Z,18.80
2022-08-03T00:38:33.537Z,18.69
2022-08-03T00:48:38.170Z,18.71
2022-08-03T00:58:41.249Z,18.63
2022-08-03T01:08:49.659Z,18.55
2022-08-03T01:18:59.964Z,18.47
2022-08-03T01:29:22.724Z,18.46
2022-08-03T01:39:30.038Z,18.43
2022-08-03T01:49:36.734Z,18.47
2022-08-03T01:59:43.159Z,18.48
2022-08-03T02:09:50.999Z,18.41
2022-08-03T02:19:57.541Z,18.32
2022-08-03T02:30:05.886Z,18.21
2022-08-03T02:40:12.812Z,18.07
2022-08-03T02:50:18.178Z,18.04
2022-08-03T03:00:28.090Z,18.12
2022-08-03T03:10:32.398Z,18.11
2022-08-03T03:20:38.607Z,17.98
2022-08-03T03:30:41.619Z,17.83
2022-08-03T03:40:46.412Z,17.70
2022-08-03T03:50:50.872Z,17.61
2022-08-03T04:00:55.036Z,17.56
2022-08-03T04:11:08.149Z,17.56
2022-08-03T04:21:16.300Z,17.57
2022-08-03T04:31:23.195Z,17.60
2022-08-03T04:41:28.882Z,17.68
2022-08-03T04:51:34.764Z,17.77
2022-08-03T05:01:40.558Z,17.81
2022-08-03T05:11:44.615Z,17.96
2022-08-03T05:21:52.899Z,18.17
2022-08-03T05:31:56.611Z,18.35
2022-08-03T05:42:01.259Z,18.61
2022-08-03T05:52:12.076Z,18.89
2022-08-03T06:02:21.035Z,19.22
2022-08-03T06:12:24.123Z,19.60
2022-08-03T06:22:28.487Z,19.95
2022-08-03T06:32:31.450Z,20.25
2022-08-03T06:42:35.775Z,20.58
2022-08-03T06:52:41.215Z,20.90
2022-08-03T07:02:46.079Z,21.23
2022-08-03T07:12:55.660Z,21.46
2022-08-03T07:23:00.969Z,21.71
2022-08-03T07:33:06.262Z,22.08
2022-08-03T07:43:10.712Z,22.52
2022-08-03T07:53:13.926Z,22.90
2022-08-03T08:03:18.213Z,23.09
2022-08-03T08:13:21.146Z,23.37
2022-08-03T08:23:41.948Z,23.78
2022-08-03T08:34:03.670Z,24.13
2022-08-03T08:44:10.358Z,24.44
2022-08-03T08:54:14.786Z,24.75
2022-08-03T09:04:19.327Z,25.10
2022-08-03T09:14:39.329Z,25.39
2022-08-03T09:25:22.779Z,25.85
2022-08-03T09:35:51.547Z,26.11
2022-08-03T09:46:04.136Z,26.64
2022-08-03T09:56:34.775Z,26.87
2022-08-03T10:06:31.738Z,27.20
2022-08-03T10:16:40.521Z,27.29
2022-08-03T10:26:49.968Z,27.67
2022-08-03T10:36:56.954Z,28.27
2022-08-03T10:47:02.675Z,28.63
2022-08-03T10:57:23.847Z,28.98
2022-08-03T11:07:29.129Z,29.20
2022-08-03T11:17:33.794Z,29.61
2022-08-03T11:28:26.746Z,29.83
2022-08-03T11:38:29.989Z,29.88
2022-08-03T11:48:43.171Z,30.28
2022-08-03T11:59:01.342Z,30.65
2022-08-03T12:09:18.474Z,31.07
2022-08-03T12:19:24.501Z,31.13
2022-08-03T12:29:29.179Z,30.81
2022-08-03T12:39:32.169Z,31.04
2022-08-03T12:49:49.664Z,31.52
2022-08-03T13:00:21.524Z,31.40
2022-08-03T13:10:53.648Z,31.09
2022-08-03T13:20:59.766Z,31.06
2022-08-03T13:31:10.371Z,31.76
2022-08-03T13:41:15.561Z,32.52
2022-08-03T13:51:29.140Z,33.07
2022-08-03T14:01:54.217Z,32.67
2022-08-03T14:12:07.829Z,33.82
2022-08-03T14:22:11.786Z,34.34
2022-08-03T14:32:16.193Z,33.30
2022-08-03T14:42:20.517Z,33.68
2022-08-03T14:52:25.205Z,34.17
2022-08-03T15:02:30.452Z,33.81
2022-08-03T15:12:34.909Z,34.63
2022-08-03T15:22:40.524Z,34.77
2022-08-03T15:32:47.255Z,34.72
2022-08-03T15:42:56.109Z,34.51
2022-08-03T15:53:04.690Z,34.27
2022-08-03T16:03:11.283Z,33.30
2022-08-03T16:13:22.800Z,32.78
2022-08-03T16:23:47.566Z,32.02
2022-08-03T16:33:52.281Z,31.59
2022-08-03T16:43:55.617Z,31.04
2022-08-03T16:54:05.756Z,31.03
2022-08-03T17:04:13.437Z,30.62
2022-08-03T17:14:21.827Z,30.34
2022-08-03T17:24:29.650Z,30.27
2022-08-03T17:34:34.348Z,30.28
2022-08-03T17:44:46.408Z,30.12
2022-08-03T17:55:50.608Z,30.08
2022-08-03T18:06:11.533Z,29.91
2022-08-03T18:16:13.908Z,29.71
2022-08-03T18:26:18.672Z,29.38
2022-08-03T18:36:30.224Z,29.08
2022-08-03T18:46:46.832Z,28.90
2022-08-03T18:56:55.319Z,28.38
2022-08-03T19:07:06.999Z,27.74
2022-08-03T19:17:21.362Z,27.38
2022-08-03T19:27:27.404Z,27.02
2022-08-03T19:37:38.323Z,26.64
2022-08-03T19:47:48.684Z,26.36
2022-08-03T19:57:57.089Z,26.10
2022-08-03T20:08:02.150Z,25.90
2022-08-03T20:18:06.692Z,25.63
2022-08-03T20:28:27.139Z,25.35
2022-08-03T20:38:31.598Z,25.11
2022-08-03T20:48:36.754Z,24.84
2022-08-03T20:58:41.739Z,24.68
2022-08-03T21:08:49.045Z,24.46
2022-08-03T21:18:54.475Z,24.24
2022-08-03T21:28:58.065Z,24.06
2022-08-03T21:39:03.195Z,23.84
2022-08-03T21:50:06.720Z,23.60
2022-08-03T21:59:37.551Z,23.54
2022-08-03T22:09:40.839Z,23.44
2022-08-03T22:19:55.914Z,23.27
2022-08-03T22:29:59.651Z,23.07
2022-08-03T22:40:08.151Z,22.90
2022-08-03T22:50:31.647Z,22.77
2022-08-03T23:00:37.682Z,22.66
2022-08-03T23:10:46.309Z,22.54
2022-08-03T23:20:53.345Z,22.42
2022-08-03T23:30:57.571Z,22.29
2022-08-03T23:41:03.643Z,22.14
2022-08-03T23:51:11.317Z,22.07
